createdAt,value
2019-01-23T00:01:56.003Z,7.97
2019-01-23T00:04:26.011Z,7.73
2019-01-23T00:06:56.008Z,9.27
2019-01-23T00:09:26.036Z,9.27
2019-01-23T00:11:56.039Z,8.80
2019-01-23T00:14:26.091Z,9.27
2019-01-23T00:16:56.003Z,9.53
2019-01-23T00:19:26.102Z,8.47
2019-01-23T00:21:56.117Z,8.73
2019-01-23T00:24:26.031Z,8.83
2019-01-23T00:26:56.160Z,8.53
2019-01-23T00:29:25.935Z,9.43
2019-01-23T00:31:56.075Z,9.93
2019-01-23T00:34:26.006Z,10.30
2019-01-23T00:36:56.002Z,9.90
2019-01-23T00:39:26.032Z,10.57
2019-01-23T00:41:56.021Z,10.20
2019-01-23T00:44:25.967Z,10.73
2019-01-23T00:46:55.859Z,11.70
2019-01-23T00:49:25.891Z,10.83
2019-01-23T00:51:55.776Z,12.13
2019-01-23T00:54:25.915Z,10.10
2019-01-23T00:56:55.919Z,12.30
2019-01-23T00:59:25.831Z,10.53
2019-01-23T01:01:55.963Z,11.07
2019-01-23T01:04:25.901Z,8.17
2019-01-23T01:06:55.999Z,8.70
2019-01-23T01:09:26.111Z,5.97
2019-01-23T01:11:56.115Z,5.43
2019-01-23T01:14:26.055Z,5.83
2019-01-23T01:16:56.052Z,5.63
2019-01-23T01:19:26.070Z,6.90
2019-01-23T01:21:56.083Z,6.60
2019-01-23T01:24:26.115Z,5.00
2019-01-23T01:26:56.123Z,4.47
2019-01-23T01:29:26.183Z,3.10
2019-01-23T01:31:56.673Z,3.60
2019-01-23T01:34:26.682Z,3.60
2019-01-23T01:36:56.687Z,4.23
2019-01-23T01:39:26.704Z,3.27
2019-01-23T01:41:56.729Z,3.00
2019-01-23T01:44:26.734Z,3.93
2019-01-23T01:46:56.771Z,3.83
2019-01-23T01:49:26.766Z,4.40
2019-01-23T01:51:56.587Z,4.40
2019-01-23T01:54:26.387Z,4.00
2019-01-23T01:56:55.527Z,4.47
2019-01-23T01:59:25.304Z,4.47
2019-01-23T02:01:55.119Z,4.23
2019-01-23T02:04:25.023Z,4.37
2019-01-23T02:06:55.050Z,4.33
2019-01-23T02:09:25.055Z,4.80
2019-01-23T02:11:54.863Z,5.23
2019-01-23T02:14:24.687Z,5.67
2019-01-23T02:16:54.491Z,6.07
2019-01-23T02:19:24.611Z,6.50
2019-01-23T02:21:54.531Z,7.77
2019-01-23T02:24:25.447Z,7.40
2019-01-23T02:26:55.286Z,7.77
2019-01-23T02:29:25.283Z,6.90
2019-01-23T02:31:55.203Z,7.60
2019-01-23T02:34:25.124Z,6.57
2019-01-23T02:36:55.080Z,6.87
2019-01-23T02:39:24.943Z,6.60
2019-01-23T02:41:54.860Z,6.80
2019-01-23T02:44:24.787Z,6.20
2019-01-23T02:46:54.574Z,7.63
2019-01-23T02:49:24.609Z,6.23
2019-01-23T02:51:54.395Z,7.03
2019-01-23T02:54:24.317Z,7.07
2019-01-23T02:56:54.232Z,8.13
2019-01-23T02:59:24.043Z,6.67
2019-01-23T03:01:53.952Z,7.20
2019-01-23T03:04:24.100Z,7.63
2019-01-23T03:06:53.999Z,8.93
2019-01-23T03:09:23.914Z,7.77
2019-01-23T03:11:53.939Z,8.20
2019-01-23T03:14:23.923Z,7.37
2019-01-23T03:16:53.967Z,6.60
2019-01-23T03:19:23.872Z,7.63
2019-01-23T03:21:53.780Z,9.83
2019-01-23T03:24:23.802Z,8.03
2019-01-23T03:26:53.403Z,7.43
2019-01-23T03:29:24.679Z,8.43
2019-01-23T03:31:54.867Z,9.43
2019-01-23T03:34:24.784Z,8.60
2019-01-23T03:36:54.791Z,8.93
2019-01-23T03:39:24.719Z,8.87
2019-01-23T03:41:54.531Z,8.70
2019-01-23T03:44:24.436Z,8.37
2019-01-23T03:46:54.351Z,8.10
2019-01-23T03:49:24.191Z,8.60
2019-01-23T03:51:54.103Z,9.90
2019-01-23T03:54:24.090Z,9.87
2019-01-23T03:56:54.003Z,10.23
2019-01-23T03:59:23.927Z,8.97
2019-01-23T04:01:53.829Z,9.53
2019-01-23T04:04:23.960Z,9.03
2019-01-23T04:06:53.760Z,9.80
2019-01-23T04:09:23.579Z,9.67
2019-01-23T04:11:53.691Z,9.33
2019-01-23T04:14:23.728Z,10.10
2019-01-23T04:16:53.739Z,9.70
2019-01-23T04:19:23.728Z,9.70
2019-01-23T04:21:53.760Z,10.53
2019-01-23T04:24:23.891Z,9.70
2019-01-23T04:26:53.924Z,10.03
2019-01-23T04:29:23.914Z,10.17
2019-01-23T04:31:53.924Z,9.97
2019-01-23T04:34:23.939Z,10.53
2019-01-23T04:36:54.064Z,10.53
2019-01-23T04:39:24.077Z,10.87
2019-01-23T04:41:54.093Z,9.97
2019-01-23T04:44:24.121Z,10.97
2019-01-23T04:46:54.016Z,11.03
2019-01-23T04:49:23.935Z,10.33
2019-01-23T04:52:11.669Z,9.93
2019-01-23T04:54:41.477Z,9.60
2019-01-23T04:57:11.591Z,10.50
2019-01-23T04:59:46.957Z,10.60
2019-01-23T05:02:14.591Z,9.03
2019-01-23T05:04:44.507Z,10.77
2019-01-23T05:07:14.423Z,9.73
2019-01-23T05:09:44.447Z,10.00
2019-01-23T05:12:14.263Z,10.80
2019-01-23T05:14:44.172Z,9.90
2019-01-23T05:17:14.063Z,9.57
2019-01-23T05:19:43.999Z,10.03
2019-01-23T05:22:13.968Z,10.27
2019-01-23T05:24:44.003Z,11.03
2019-01-23T05:27:14.017Z,10.27
2019-01-23T05:29:44.054Z,9.60
2019-01-23T05:32:14.131Z,10.70
2019-01-23T05:34:43.975Z,10.40
2019-01-23T05:37:14.007Z,10.33
2019-01-23T05:39:44.951Z,9.40
2019-01-23T05:42:15.017Z,9.50
2019-01-23T05:44:45.150Z,9.77
2019-01-23T05:47:15.095Z,9.37
2019-01-23T05:49:45.007Z,8.67
2019-01-23T05:52:16.671Z,9.63
2019-01-23T05:54:46.593Z,9.10
2019-01-23T05:57:16.603Z,9.40
2019-01-23T05:59:46.639Z,8.63
2019-01-23T06:02:16.515Z,8.43
2019-01-23T06:04:48.132Z,9.37
2019-01-23T06:07:18.171Z,9.57
2019-01-23T06:09:48.095Z,9.67
2019-01-23T06:12:18.044Z,9.37
2019-01-23T06:14:47.816Z,9.50
2019-01-23T06:17:17.855Z,9.03
2019-01-23T06:19:47.804Z,8.80
2019-01-23T06:22:17.719Z,9.60
2019-01-23T06:24:47.583Z,9.43
2019-01-23T06:27:17.608Z,10.07
2019-01-23T06:29:47.503Z,9.40
2019-01-23T06:32:17.647Z,9.73
2019-01-23T06:34:47.539Z,10.40
2019-01-23T06:37:17.543Z,10.33
2019-01-23T06:39:47.704Z,10.33
2019-01-23T06:42:17.625Z,11.67
2019-01-23T06:44:47.504Z,11.27
2019-01-23T06:47:17.460Z,11.13
2019-01-23T06:49:47.351Z,11.73
2019-01-23T06:52:17.232Z,11.07
2019-01-23T06:54:47.323Z,11.23
2019-01-23T06:57:17.183Z,10.80
2019-01-23T06:59:47.108Z,14.20
2019-01-23T07:02:17.015Z,13.77
2019-01-23T07:04:47.027Z,16.10
2019-01-23T07:07:16.928Z,11.70
2019-01-23T07:09:46.850Z,12.10
2019-01-23T07:12:16.880Z,12.83
2019-01-23T07:14:46.745Z,12.07
2019-01-23T07:17:16.595Z,12.37
2019-01-23T07:19:46.623Z,11.77
2019-01-23T07:22:17.731Z,11.73
2019-01-23T07:24:47.774Z,12.10
2019-01-23T07:27:17.779Z,12.43
2019-01-23T07:29:47.919Z,11.10
2019-01-23T07:32:17.916Z,10.83
2019-01-23T07:34:48.050Z,10.23
2019-01-23T07:37:17.935Z,10.50
2019-01-23T07:39:47.880Z,11.10
2019-01-23T07:42:17.787Z,10.00
2019-01-23T07:44:47.807Z,9.37
2019-01-23T07:47:17.715Z,9.70
2019-01-23T07:49:47.783Z,11.13
2019-01-23T07:52:17.647Z,9.63
2019-01-23T07:54:47.551Z,10.73
2019-01-23T07:57:17.567Z,10.47
2019-01-23T07:59:47.479Z,11.77
2019-01-23T08:02:17.507Z,10.57
2019-01-23T08:04:47.407Z,10.27
2019-01-23T08:07:17.323Z,10.47
2019-01-23T08:09:47.235Z,10.93
2019-01-23T08:12:17.163Z,11.40
2019-01-23T08:14:47.262Z,11.57
2019-01-23T08:17:17.201Z,11.30
2019-01-23T08:19:47.091Z,12.23
2019-01-23T08:22:17.111Z,11.07
2019-01-23T08:24:47.139Z,11.67
2019-01-23T08:27:17.147Z,11.63
2019-01-23T08:29:47.155Z,11.57
2019-01-23T08:32:17.084Z,12.70
2019-01-23T08:34:46.980Z,12.87
2019-01-23T08:37:16.904Z,15.13
2019-01-23T08:39:46.915Z,13.20
2019-01-23T08:42:16.828Z,14.10
2019-01-23T08:44:46.908Z,14.23
2019-01-23T08:47:16.907Z,15.30
2019-01-23T08:49:47.096Z,14.30
2019-01-23T08:52:17.103Z,13.53
2019-01-23T08:54:47.115Z,14.73
2019-01-23T08:57:17.135Z,15.27
2019-01-23T08:59:47.131Z,14.47
2019-01-23T09:02:17.174Z,12.93
2019-01-23T09:04:47.087Z,13.17
2019-01-23T09:07:16.979Z,11.17
2019-01-23T09:09:46.915Z,11.50
2019-01-23T09:12:16.835Z,12.37
2019-01-23T09:14:46.711Z,10.57
2019-01-23T09:17:16.751Z,11.40
2019-01-23T09:19:46.748Z,11.10
2019-01-23T09:22:16.704Z,10.87
2019-01-23T09:24:46.807Z,11.40
2019-01-23T09:27:16.599Z,12.43
2019-01-23T09:29:46.524Z,11.97
2019-01-23T09:32:31.599Z,11.30
2019-01-23T09:35:38.225Z,11.63
2019-01-23T09:38:56.089Z,10.67
2019-01-23T09:41:43.527Z,11.57
2019-01-23T09:44:30.810Z,11.33
2019-01-23T09:47:47.469Z,11.50
2019-01-23T09:50:49.871Z,9.37
2019-01-23T09:53:33.570Z,10.47
2019-01-23T09:56:03.713Z,10.00
2019-01-23T09:58:33.702Z,11.30
2019-01-23T10:01:06.676Z,9.93
2019-01-23T10:03:35.768Z,10.17
2019-01-23T10:06:06.063Z,10.23
2019-01-23T10:08:36.334Z,10.57
2019-01-23T10:11:06.331Z,10.37
2019-01-23T10:13:36.475Z,9.80
2019-01-23T10:16:17.356Z,10.53
2019-01-23T10:18:47.392Z,9.63
2019-01-23T10:21:17.769Z,9.47
2019-01-23T10:23:48.982Z,11.13
2019-01-23T10:26:19.029Z,9.43
2019-01-23T10:28:48.938Z,9.93
2019-01-23T10:31:18.977Z,9.17
2019-01-23T10:33:48.860Z,11.33
2019-01-23T10:36:18.902Z,11.07
2019-01-23T10:38:49.007Z,11.07
2019-01-23T10:41:18.919Z,13.47
2019-01-23T10:43:48.951Z,13.87
2019-01-23T10:46:18.843Z,10.97
2019-01-23T10:48:48.884Z,10.97
2019-01-23T10:51:18.776Z,21.57
2019-01-23T10:53:48.693Z,20.37
2019-01-23T10:56:18.723Z,23.40
2019-01-23T10:58:48.619Z,23.90
2019-01-23T11:01:18.640Z,20.63
2019-01-23T11:03:48.587Z,20.17
2019-01-23T11:06:18.675Z,14.40
2019-01-23T11:08:48.772Z,13.40
2019-01-23T11:11:18.819Z,12.03
2019-01-23T11:13:49.719Z,13.13
2019-01-23T11:16:19.659Z,13.27
2019-01-23T11:18:49.688Z,12.07
2019-01-23T11:21:19.716Z,12.10
2019-01-23T11:23:49.708Z,13.13
2019-01-23T11:26:19.889Z,13.83
2019-01-23T11:28:49.946Z,12.00
2019-01-23T11:31:20.429Z,11.77
2019-01-23T11:33:50.912Z,10.93
2019-01-23T11:36:21.034Z,11.50
2019-01-23T11:38:50.959Z,11.60
2019-01-23T11:41:21.060Z,10.77
2019-01-23T11:43:50.963Z,11.00
2019-01-23T11:46:20.875Z,11.90
2019-01-23T11:48:50.859Z,11.70
2019-01-23T11:51:20.819Z,10.70
2019-01-23T11:53:50.703Z,11.33
2019-01-23T11:56:20.749Z,11.37
2019-01-23T11:58:50.753Z,11.80
2019-01-23T12:01:27.361Z,11.20
2019-01-23T12:03:52.369Z,19.00
2019-01-23T12:06:22.219Z,11.03
2019-01-23T12:08:52.151Z,11.17
2019-01-23T12:11:22.170Z,10.73
2019-01-23T12:13:52.075Z,10.47
2019-01-23T12:16:22.273Z,10.33
2019-01-23T12:18:52.215Z,9.80
2019-01-23T12:21:22.337Z,10.37
2019-01-23T12:23:58.207Z,9.77
2019-01-23T12:26:23.796Z,9.37
2019-01-23T12:28:53.707Z,10.17
2019-01-23T12:31:23.609Z,9.90
2019-01-23T12:33:53.756Z,9.53
2019-01-23T12:36:23.551Z,10.33
2019-01-23T12:38:53.470Z,9.50
2019-01-23T12:41:23.287Z,8.20
2019-01-23T12:43:53.186Z,9.40
2019-01-23T12:46:23.100Z,10.10
2019-01-23T12:48:53.236Z,10.13
2019-01-23T12:51:23.355Z,8.97
2019-01-23T12:53:53.347Z,10.10
2019-01-23T12:56:23.396Z,9.23
2019-01-23T12:58:53.291Z,10.13
2019-01-23T13:01:23.320Z,10.53
2019-01-23T13:03:53.231Z,9.70
2019-01-23T13:06:23.332Z,10.13
2019-01-23T13:08:53.240Z,9.90
2019-01-23T13:11:23.383Z,11.30
2019-01-23T13:13:53.405Z,10.40
2019-01-23T13:16:23.287Z,10.83
2019-01-23T13:18:53.450Z,10.07
2019-01-23T13:21:23.331Z,12.30
2019-01-23T13:23:53.350Z,10.87
2019-01-23T13:26:23.284Z,10.27
2019-01-23T13:28:53.271Z,20.97
2019-01-23T13:31:23.304Z,11.23
2019-01-23T13:33:53.188Z,10.90
2019-01-23T14:17:46.111Z,10.97
2019-01-23T14:20:16.831Z,11.23
2019-01-23T14:22:46.835Z,9.93
2019-01-23T14:25:17.231Z,10.70
2019-01-23T14:27:47.200Z,11.27
2019-01-23T14:30:21.079Z,12.73
2019-01-23T14:32:50.995Z,12.00
2019-01-23T14:35:21.071Z,11.20
2019-01-23T14:37:50.939Z,14.20
2019-01-23T14:40:20.965Z,13.03
2019-01-23T14:42:50.879Z,15.07
2019-01-23T14:45:20.903Z,15.80
2019-01-23T14:47:50.800Z,15.33
2019-01-23T14:50:20.828Z,14.27
2019-01-23T14:52:50.966Z,14.60
2019-01-23T14:55:20.944Z,15.37
2019-01-23T14:57:51.088Z,16.90
2019-01-23T15:00:23.559Z,18.00
2019-01-23T15:02:55.824Z,20.13
2019-01-23T15:05:25.839Z,17.50
2019-01-23T15:07:55.844Z,18.50
2019-01-23T15:10:27.402Z,24.27
2019-01-23T15:12:57.420Z,16.77
2019-01-23T15:15:27.560Z,13.47
2019-01-23T15:17:57.683Z,13.93
2019-01-23T15:20:33.092Z,13.27
2019-01-23T15:23:03.124Z,13.40
2019-01-23T15:25:33.126Z,13.60
2019-01-23T15:28:03.152Z,13.23
2019-01-23T15:30:33.147Z,12.63
2019-01-23T15:33:03.404Z,13.17
2019-01-23T15:35:33.388Z,13.63
2019-01-23T15:38:03.315Z,14.70
2019-01-23T15:40:35.783Z,13.77
2019-01-23T15:43:05.900Z,15.40
2019-01-23T15:45:36.443Z,14.87
2019-01-23T15:48:06.697Z,15.13
2019-01-23T15:50:36.676Z,14.63
2019-01-23T15:53:06.707Z,13.93
2019-01-23T15:55:36.693Z,14.57
2019-01-23T15:58:06.620Z,14.03
2019-01-23T16:00:36.523Z,18.47
2019-01-23T16:03:06.652Z,16.47
2019-01-23T16:05:36.564Z,16.83
2019-01-23T16:08:06.568Z,15.57
2019-01-23T16:10:36.715Z,18.53
2019-01-23T16:13:09.104Z,19.07
2019-01-23T16:15:39.423Z,17.23
2019-01-23T16:18:09.336Z,18.90
2019-01-23T16:20:42.306Z,18.23
2019-01-23T16:23:12.319Z,17.90
2019-01-23T16:25:42.208Z,19.47
2019-01-23T16:28:12.344Z,17.43
2019-01-23T16:30:42.590Z,16.53
2019-01-23T16:33:12.513Z,15.57
2019-01-23T16:35:42.516Z,15.73
2019-01-23T16:38:12.865Z,18.23
2019-01-23T16:40:43.092Z,16.47
2019-01-23T16:43:13.040Z,19.87
2019-01-23T16:45:43.083Z,20.83
2019-01-23T16:48:13.192Z,19.13
2019-01-23T16:50:43.281Z,18.23
2019-01-23T16:53:13.224Z,18.03
2019-01-23T16:55:43.236Z,19.30
2019-01-23T16:58:13.244Z,16.20
2019-01-23T17:00:43.457Z,15.20
2019-01-23T17:03:13.697Z,17.10
2019-01-23T17:05:43.700Z,17.07
2019-01-23T17:08:13.812Z,18.67
2019-01-23T17:10:43.947Z,17.83
2019-01-23T17:13:14.056Z,17.47
2019-01-23T17:15:44.182Z,17.03
2019-01-23T17:18:14.303Z,18.23
2019-01-23T17:20:46.792Z,18.27
2019-01-23T17:23:17.521Z,19.67
2019-01-23T17:25:47.509Z,17.53
2019-01-23T17:28:17.948Z,19.40
2019-01-23T17:30:48.064Z,19.80
2019-01-23T17:33:21.050Z,19.67
2019-01-23T17:35:51.200Z,18.53
2019-01-23T17:38:21.195Z,19.97
2019-01-23T17:40:51.288Z,21.60
2019-01-23T17:43:21.533Z,18.53
2019-01-23T17:45:51.423Z,19.37
2019-01-23T17:48:21.572Z,19.07
2019-01-23T17:50:52.341Z,20.10
2019-01-23T17:53:22.424Z,20.80
2019-01-23T17:55:52.445Z,19.20
2019-01-23T17:58:22.432Z,21.07
2019-01-23T18:00:57.172Z,20.43
2019-01-23T18:03:27.197Z,20.83
2019-01-23T18:05:57.615Z,20.60
2019-01-23T18:08:27.737Z,19.17
2019-01-23T18:10:57.652Z,19.60
2019-01-23T18:13:27.764Z,19.27
2019-01-23T18:16:06.584Z,19.97
2019-01-23T18:18:36.693Z,20.97
2019-01-23T18:21:06.719Z,20.10
2019-01-23T18:23:36.756Z,19.43
2019-01-23T18:26:06.752Z,20.43
2019-01-23T18:28:36.767Z,20.67
2019-01-23T18:31:28.422Z,18.27
2019-01-23T18:34:38.184Z,19.40
2019-01-23T18:37:34.779Z,19.70
2019-01-23T18:40:43.104Z,19.40
2019-01-23T18:43:48.635Z,19.13
2019-01-23T18:46:43.032Z,18.97
2019-01-23T18:49:47.745Z,19.37
2019-01-23T18:52:17.871Z,18.03
2019-01-23T18:54:48.038Z,18.47
2019-01-23T18:57:21.119Z,17.13
2019-01-23T18:59:51.195Z,18.90
2019-01-23T19:02:21.260Z,19.17
2019-01-23T19:04:51.350Z,17.60
2019-01-23T19:07:21.359Z,18.13
2019-01-23T19:09:51.467Z,18.07
2019-01-23T19:12:21.545Z,18.97
2019-01-23T19:14:51.755Z,20.43
2019-01-23T19:17:21.729Z,18.47
2019-01-23T19:19:51.733Z,21.10
2019-01-23T19:22:21.860Z,15.27
2019-01-23T19:24:51.910Z,18.23
2019-01-23T19:27:21.989Z,20.87
2019-01-23T19:29:51.924Z,28.27
2019-01-23T19:32:22.059Z,19.57
2019-01-23T19:34:51.957Z,19.43
2019-01-23T19:37:22.042Z,20.33
2019-01-23T19:39:52.072Z,20.40
2019-01-23T19:42:22.117Z,17.40
2019-01-23T19:44:52.100Z,17.77
2019-01-23T19:47:22.125Z,16.97
2019-01-23T19:49:52.239Z,17.40
2019-01-23T19:52:22.277Z,18.17
2019-01-23T19:54:52.358Z,24.92
2019-01-23T19:57:22.481Z,16.53
2019-01-23T19:59:52.504Z,16.27
2019-01-23T20:02:22.519Z,17.27
2019-01-23T20:04:52.580Z,18.13
2019-01-23T20:07:22.544Z,18.00
2019-01-23T20:09:52.664Z,17.83
2019-01-23T20:12:23.747Z,18.10
2019-01-23T20:14:53.841Z,15.37
2019-01-23T20:17:25.860Z,16.27
2019-01-23T20:20:11.205Z,15.87
2019-01-23T20:22:41.472Z,15.67
2019-01-23T20:25:22.060Z,15.03
2019-01-23T20:27:54.522Z,15.33
2019-01-23T20:30:32.837Z,15.07
2019-01-23T20:33:03.003Z,14.60
2019-01-23T20:35:33.198Z,14.63
2019-01-23T20:38:03.196Z,13.47
2019-01-23T20:40:33.525Z,14.80
2019-01-23T20:43:05.211Z,15.20
2019-01-23T20:45:35.263Z,13.70
2019-01-23T20:48:06.455Z,13.73
2019-01-23T20:50:36.583Z,13.07
2019-01-23T20:53:06.963Z,13.17
2019-01-23T20:55:37.188Z,12.07
2019-01-23T20:58:09.532Z,11.83
2019-01-23T21:00:39.513Z,12.90
2019-01-23T21:03:09.538Z,12.20
2019-01-23T21:05:39.543Z,11.73
2019-01-23T21:08:09.538Z,11.33
2019-01-23T21:10:39.697Z,10.77
2019-01-23T21:13:09.765Z,10.87
2019-01-23T21:15:39.904Z,12.60
2019-01-23T21:18:09.921Z,11.47
2019-01-23T21:20:41.668Z,10.40
2019-01-23T21:23:15.793Z,9.77
2019-01-23T21:25:45.847Z,9.40
2019-01-23T21:28:17.575Z,9.20
2019-01-23T21:30:48.821Z,9.17
2019-01-23T21:33:18.931Z,8.73
2019-01-23T21:35:48.948Z,8.70
2019-01-23T21:38:18.970Z,9.10
2019-01-23T21:40:51.773Z,8.00
2019-01-23T21:43:22.029Z,6.80
2019-01-23T21:45:52.186Z,7.73
2019-01-23T21:48:22.173Z,7.93
2019-01-23T21:50:52.455Z,7.87
2019-01-23T21:53:23.975Z,7.03
2019-01-23T21:55:54.112Z,7.20
2019-01-23T21:58:24.137Z,7.53
2019-01-23T22:00:56.903Z,7.37
2019-01-23T22:03:27.863Z,7.30
2019-01-23T22:05:57.920Z,7.07
2019-01-23T22:08:28.059Z,6.83
2019-01-23T22:10:58.012Z,7.53
2019-01-23T22:13:27.843Z,6.87
2019-01-23T22:15:57.942Z,7.63
2019-01-23T22:18:27.901Z,7.57
2019-01-23T22:20:58.093Z,7.13
2019-01-23T22:23:28.220Z,7.47
2019-01-23T22:25:58.254Z,6.90
2019-01-23T22:28:28.367Z,7.23
2019-01-23T22:30:58.591Z,7.17
2019-01-23T22:33:28.508Z,7.80
2019-01-23T22:35:58.607Z,7.23
2019-01-23T22:38:28.718Z,8.57
2019-01-23T22:41:00.579Z,7.40
2019-01-23T22:43:30.550Z,8.27
2019-01-23T22:46:03.811Z,7.47
2019-01-23T22:48:33.815Z,7.70
2019-01-23T22:51:05.292Z,8.17
2019-01-23T22:53:35.277Z,7.77
2019-01-23T22:56:05.930Z,8.30
2019-01-23T22:58:35.937Z,8.67
2019-01-23T23:01:28.651Z,8.50
2019-01-23T23:04:03.462Z,9.63
2019-01-23T23:06:31.255Z,8.77
2019-01-23T23:09:01.446Z,8.63
2019-01-23T23:11:31.608Z,8.00
2019-01-23T23:14:02.338Z,8.33
2019-01-23T23:16:32.499Z,9.53
2019-01-23T23:19:02.503Z,9.07
2019-01-23T23:21:33.843Z,8.80
2019-01-23T23:24:04.066Z,7.67
2019-01-23T23:26:34.164Z,8.40
2019-01-23T23:29:04.484Z,8.03
2019-01-23T23:31:38.487Z,8.57
2019-01-23T23:34:10.046Z,8.53
2019-01-23T23:36:40.282Z,8.53
2019-01-23T23:39:11.300Z,9.13
2019-01-23T23:41:43.387Z,8.80
2019-01-23T23:44:13.700Z,8.63
2019-01-23T23:46:43.775Z,7.57
2019-01-23T23:49:13.804Z,8.00
2019-01-23T23:51:44.075Z,8.33
2019-01-23T23:54:14.307Z,7.70
2019-01-23T23:56:46.930Z,7.70
2019-01-23T23:59:17.378Z,9.03
